sensor_id;sensor_type;location;lat;lon;timestamp;temperature;humidity
4985;DHT22;2509;49.902;8.600;2022-07-23T00:02:27;23.90;99.90
4985;DHT22;2509;49.902;8.600;2022-07-23T00:05:29;23.90;99.90
4985;DHT22;2509;49.902;8.600;2022-07-23T00:08:30;23.80;99.90
4985;DHT22;2509;49.902;8.600;2022-07-23T00:11:33;23.80;99.90
4985;DHT22;2509;49.902;8.600;2022-07-23T00:14:35;23.50;99.90
4985;DHT22;2509;49.902;8.600;2022-07-23T00:17:37;23.60;99.90
4985;DHT22;2509;49.902;8.600;2022-07-23T00:20:39;23.70;99.90
4985;DHT22;2509;49.902;8.600;2022-07-23T00:23:41;23.60;99.90
4985;DHT22;2509;49.902;8.600;2022-07-23T00:26:44;23.70;99.90
4985;DHT22;2509;49.902;8.600;2022-07-23T00:29:45;23.90;99.90
4985;DHT22;2509;49.902;8.600;2022-07-23T00:32:48;23.90;99.90
4985;DHT22;2509;49.902;8.600;2022-07-23T00:35:50;24.00;99.90
4985;DHT22;2509;49.902;8.600;2022-07-23T00:38:52;24.10;99.90
4985;DHT22;2509;49.902;8.600;2022-07-23T00:41:55;23.90;99.90
4985;DHT22;2509;49.902;8.600;2022-07-23T00:44:57;23.70;99.90
4985;DHT22;2509;49.902;8.600;2022-07-23T00:47:59;23.70;99.90
4985;DHT22;2509;49.902;8.600;2022-07-23T00:51:01;23.80;99.90
4985;DHT22;2509;49.902;8.600;2022-07-23T00:54:03;23.80;99.90
4985;DHT22;2509;49.902;8.600;2022-07-23T00:57:06;23.70;99.90
4985;DHT22;2509;49.902;8.600;2022-07-23T01:00:10;23.50;99.90
4985;DHT22;2509;49.902;8.600;2022-07-23T01:03:12;23.40;99.90
4985;DHT22;2509;49.902;8.600;2022-07-23T01:06:14;23.50;99.90
4985;DHT22;2509;49.902;8.600;2022-07-23T01:09:16;23.50;99.90
4985;DHT22;2509;49.902;8.600;2022-07-23T01:12:20;23.50;99.90
4985;DHT22;2509;49.902;8.600;2022-07-23T01:15:22;23.40;99.90
4985;DHT22;2509;49.902;8.600;2022-07-23T01:18:23;23.20;99.90
4985;DHT22;2509;49.902;8.600;2022-07-23T01:21:25;23.20;99.90
4985;DHT22;2509;49.902;8.600;2022-07-23T01:24:29;23.20;99.90
4985;DHT22;2509;49.902;8.600;2022-07-23T01:27:31;23.20;99.90
4985;DHT22;2509;49.902;8.600;2022-07-23T01:30:32;23.20;99.90
4985;DHT22;2509;49.902;8.600;2022-07-23T01:33:34;23.30;99.90
4985;DHT22;2509;49.902;8.600;2022-07-23T01:36:36;23.20;99.90
4985;DHT22;2509;49.902;8.600;2022-07-23T01:39:39;23.00;99.90
4985;DHT22;2509;49.902;8.600;2022-07-23T01:42:41;22.90;99.90
4985;DHT22;2509;49.902;8.600;2022-07-23T01:45:43;22.90;99.90
4985;DHT22;2509;49.902;8.600;2022-07-23T01:48:45;23.00;99.90
4985;DHT22;2509;49.902;8.600;2022-07-23T01:51:46;23.10;99.90
4985;DHT22;2509;49.902;8.600;2022-07-23T01:55:04;23.10;99.90
4985;DHT22;2509;49.902;8.600;2022-07-23T01:58:07;23.00;99.90
4985;DHT22;2509;49.902;8.600;2022-07-23T02:01:09;22.80;99.90
4985;DHT22;2509;49.902;8.600;2022-07-23T02:04:10;22.60;99.90
4985;DHT22;2509;49.902;8.600;2022-07-23T02:07:12;22.50;99.90
4985;DHT22;2509;49.902;8.600;2022-07-23T02:10:15;22.40;99.90
4985;DHT22;2509;49.902;8.600;2022-07-23T02:13:17;22.50;99.90
4985;DHT22;2509;49.902;8.600;2022-07-23T02:16:19;22.50;99.90
4985;DHT22;2509;49.902;8.600;2022-07-23T02:19:21;22.50;99.90
4985;DHT22;2509;49.902;8.600;2022-07-23T02:22:23;22.40;99.90
4985;DHT22;2509;49.902;8.600;2022-07-23T02:25:26;22.50;99.90
4985;DHT22;2509;49.902;8.600;2022-07-23T02:28:28;22.50;99.90
4985;DHT22;2509;49.902;8.600;2022-07-23T02:31:30;22.50;99.90
4985;DHT22;2509;49.902;8.600;2022-07-23T02:34:31;22.50;99.90
4985;DHT22;2509;49.902;8.600;2022-07-23T02:37:33;22.40;99.90
4985;DHT22;2509;49.902;8.600;2022-07-23T02:40:36;22.50;99.90
4985;DHT22;2509;49.902;8.600;2022-07-23T02:43:38;22.50;99.90
4985;DHT22;2509;49.902;8.600;2022-07-23T02:46:40;22.50;99.90
4985;DHT22;2509;49.902;8.600;2022-07-23T02:49:41;22.60;99.90
4985;DHT22;2509;49.902;8.600;2022-07-23T02:52:43;22.60;99.90
4985;DHT22;2509;49.902;8.600;2022-07-23T02:55:47;22.30;99.90
4985;DHT22;2509;49.902;8.600;2022-07-23T02:58:48;22.30;99.90
4985;DHT22;2509;49.902;8.600;2022-07-23T03:01:50;22.20;99.90
4985;DHT22;2509;49.902;8.600;2022-07-23T03:04:52;22.20;99.90
4985;DHT22;2509;49.902;8.600;2022-07-23T03:07:54;22.20;99.90
4985;DHT22;2509;49.902;8.600;2022-07-23T03:10:57;22.30;99.90
4985;DHT22;2509;49.902;8.600;2022-07-23T03:13:58;22.30;99.90
4985;DHT22;2509;49.902;8.600;2022-07-23T03:17:00;22.20;99.90
4985;DHT22;2509;49.902;8.600;2022-07-23T03:20:02;22.10;99.90
4985;DHT22;2509;49.902;8.600;2022-07-23T03:23:04;22.10;99.90
4985;DHT22;2509;49.902;8.600;2022-07-23T03:26:07;22.20;99.90
4985;DHT22;2509;49.902;8.600;2022-07-23T03:29:09;22.20;99.90
4985;DHT22;2509;49.902;8.600;2022-07-23T03:32:11;22.20;99.90
4985;DHT22;2509;49.902;8.600;2022-07-23T03:35:13;22.10;99.90
4985;DHT22;2509;49.902;8.600;2022-07-23T03:38:15;22.10;99.90
4985;DHT22;2509;49.902;8.600;2022-07-23T03:41:18;22.10;99.90
4985;DHT22;2509;49.902;8.600;2022-07-23T03:44:20;22.10;99.90
4985;DHT22;2509;49.902;8.600;2022-07-23T03:47:22;22.10;99.90
4985;DHT22;2509;49.902;8.600;2022-07-23T03:50:24;22.20;99.90
4985;DHT22;2509;49.902;8.600;2022-07-23T03:53:26;22.20;99.90
4985;DHT22;2509;49.902;8.600;2022-07-23T03:56:29;22.30;99.90
4985;DHT22;2509;49.902;8.600;2022-07-23T03:59:31;22.30;99.90
4985;DHT22;2509;49.902;8.600;2022-07-23T04:02:32;22.30;99.90
4985;DHT22;2509;49.902;8.600;2022-07-23T04:05:34;22.20;99.90
4985;DHT22;2509;49.902;8.600;2022-07-23T04:08:36;22.10;99.90
4985;DHT22;2509;49.902;8.600;2022-07-23T04:11:39;22.00;99.90
4985;DHT22;2509;49.902;8.600;2022-07-23T04:14:41;22.00;99.90
4985;DHT22;2509;49.902;8.600;2022-07-23T04:17:43;21.80;99.90
4985;DHT22;2509;49.902;8.600;2022-07-23T04:20:45;21.80;99.90
4985;DHT22;2509;49.902;8.600;2022-07-23T04:23:47;21.80;99.90
4985;DHT22;2509;49.902;8.600;2022-07-23T04:26:50;22.00;99.90
4985;DHT22;2509;49.902;8.600;2022-07-23T04:29:51;21.90;99.90
4985;DHT22;2509;49.902;8.600;2022-07-23T04:32:53;22.00;99.90
4985;DHT22;2509;49.902;8.600;2022-07-23T04:35:55;22.10;99.90
4985;DHT22;2509;49.902;8.600;2022-07-23T04:38:57;22.20;99.90
4985;DHT22;2509;49.902;8.600;2022-07-23T04:42:00;22.30;99.90
4985;DHT22;2509;49.902;8.600;2022-07-23T04:45:02;22.30;99.90
4985;DHT22;2509;49.902;8.600;2022-07-23T04:48:05;22.30;99.90
4985;DHT22;2509;49.902;8.600;2022-07-23T04:51:06;22.30;99.90
4985;DHT22;2509;49.902;8.600;2022-07-23T04:54:08;22.30;99.90
4985;DHT22;2509;49.902;8.600;2022-07-23T04:57:11;22.30;99.90
4985;DHT22;2509;49.902;8.600;2022-07-23T05:00:14;22.40;99.90
4985;DHT22;2509;49.902;8.600;2022-07-23T05:03:15;22.30;99.90
4985;DHT22;2509;49.902;8.600;2022-07-23T05:06:17;22.20;99.90
4985;DHT22;2509;49.902;8.600;2022-07-23T05:09:19;22.10;99.90
4985;DHT22;2509;49.902;8.600;2022-07-23T05:12:22;22.10;99.90
4985;DHT22;2509;49.902;8.600;2022-07-23T05:15:24;21.90;99.90
4985;DHT22;2509;49.902;8.600;2022-07-23T05:18:26;21.70;99.90
4985;DHT22;2509;49.902;8.600;2022-07-23T05:21:28;21.60;99.90
4985;DHT22;2509;49.902;8.600;2022-07-23T05:24:30;21.70;99.90
4985;DHT22;2509;49.902;8.600;2022-07-23T05:27:33;21.70;99.90
4985;DHT22;2509;49.902;8.600;2022-07-23T05:30:35;21.70;99.90
4985;DHT22;2509;49.902;8.600;2022-07-23T05:33:37;21.70;99.90
4985;DHT22;2509;49.902;8.600;2022-07-23T05:36:38;21.70;99.90
4985;DHT22;2509;49.902;8.600;2022-07-23T05:39:40;21.70;99.90
4985;DHT22;2509;49.902;8.600;2022-07-23T05:42:43;21.70;99.90
4985;DHT22;2509;49.902;8.600;2022-07-23T05:45:45;21.80;99.90
4985;DHT22;2509;49.902;8.600;2022-07-23T05:48:47;22.00;99.90
4985;DHT22;2509;49.902;8.600;2022-07-23T05:51:50;22.00;99.90
4985;DHT22;2509;49.902;8.600;2022-07-23T05:54:52;21.90;99.90
4985;DHT22;2509;49.902;8.600;2022-07-23T05:57:55;22.00;99.90
4985;DHT22;2509;49.902;8.600;2022-07-23T06:00:57;22.20;99.90
4985;DHT22;2509;49.902;8.600;2022-07-23T06:03:59;22.10;99.90
4985;DHT22;2509;49.902;8.600;2022-07-23T06:07:00;22.20;99.90
4985;DHT22;2509;49.902;8.600;2022-07-23T06:10:03;22.30;99.90
4985;DHT22;2509;49.902;8.600;2022-07-23T06:13:06;22.50;99.90
4985;DHT22;2509;49.902;8.600;2022-07-23T06:16:08;22.50;99.90
4985;DHT22;2509;49.902;8.600;2022-07-23T06:19:10;22.50;99.90
4985;DHT22;2509;49.902;8.600;2022-07-23T06:22:12;22.40;99.90
4985;DHT22;2509;49.902;8.600;2022-07-23T06:25:14;22.40;99.90
4985;DHT22;2509;49.902;8.600;2022-07-23T06:28:18;22.30;99.90
4985;DHT22;2509;49.902;8.600;2022-07-23T06:31:20;22.20;99.90
4985;DHT22;2509;49.902;8.600;2022-07-23T06:34:21;22.20;99.90
4985;DHT22;2509;49.902;8.600;2022-07-23T06:37:23;22.20;99.90
4985;DHT22;2509;49.902;8.600;2022-07-23T06:40:25;22.20;99.90
4985;DHT22;2509;49.902;8.600;2022-07-23T06:43:30;22.30;99.90
4985;DHT22;2509;49.902;8.600;2022-07-23T06:46:32;22.50;99.90
4985;DHT22;2509;49.902;8.600;2022-07-23T06:49:34;22.60;99.90
4985;DHT22;2509;49.902;8.600;2022-07-23T06:52:35;22.60;99.90
4985;DHT22;2509;49.902;8.600;2022-07-23T06:55:37;22.80;99.90
4985;DHT22;2509;49.902;8.600;2022-07-23T06:58:41;23.00;99.90
4985;DHT22;2509;49.902;8.600;2022-07-23T07:01:43;23.00;99.90
4985;DHT22;2509;49.902;8.600;2022-07-23T07:04:45;23.00;99.90
4985;DHT22;2509;49.902;8.600;2022-07-23T07:07:47;23.10;99.90
4985;DHT22;2509;49.902;8.600;2022-07-23T07:10:49;23.10;99.90
4985;DHT22;2509;49.902;8.600;2022-07-23T07:13:52;23.20;99.90
4985;DHT22;2509;49.902;8.600;2022-07-23T07:16:54;23.30;99.90
4985;DHT22;2509;49.902;8.600;2022-07-23T07:19:55;23.20;99.90
4985;DHT22;2509;49.902;8.600;2022-07-23T07:22:57;23.40;99.90
4985;DHT22;2509;49.902;8.600;2022-07-23T07:25:59;23.50;99.90
4985;DHT22;2509;49.902;8.600;2022-07-23T07:29:02;23.60;99.90
4985;DHT22;2509;49.902;8.600;2022-07-23T07:32:05;23.70;99.90
4985;DHT22;2509;49.902;8.600;2022-07-23T07:35:07;23.70;99.90
4985;DHT22;2509;49.902;8.600;2022-07-23T07:38:09;23.90;99.90
4985;DHT22;2509;49.902;8.600;2022-07-23T07:41:11;24.00;99.90
4985;DHT22;2509;49.902;8.600;2022-07-23T07:44:14;24.10;99.90
4985;DHT22;2509;49.902;8.600;2022-07-23T07:47:16;24.30;99.90
4985;DHT22;2509;49.902;8.600;2022-07-23T07:50:20;24.30;99.90
4985;DHT22;2509;49.902;8.600;2022-07-23T07:53:22;24.30;99.90
4985;DHT22;2509;49.902;8.600;2022-07-23T07:56:24;24.40;99.90
4985;DHT22;2509;49.902;8.600;2022-07-23T07:59:27;24.50;99.90
4985;DHT22;2509;49.902;8.600;2022-07-23T08:02:29;24.60;99.90
4985;DHT22;2509;49.902;8.600;2022-07-23T08:05:31;24.80;99.90
4985;DHT22;2509;49.902;8.600;2022-07-23T08:08:32;24.90;99.90
4985;DHT22;2509;49.902;8.600;2022-07-23T08:11:34;25.10;99.90
4985;DHT22;2509;49.902;8.600;2022-07-23T08:14:37;25.10;99.90
4985;DHT22;2509;49.902;8.600;2022-07-23T08:17:39;24.80;99.90
4985;DHT22;2509;49.902;8.600;2022-07-23T08:20:41;24.80;99.90
4985;DHT22;2509;49.902;8.600;2022-07-23T08:23:43;24.90;99.90
4985;DHT22;2509;49.902;8.600;2022-07-23T08:26:45;25.00;99.90
4985;DHT22;2509;49.902;8.600;2022-07-23T08:29:48;25.20;99.90
4985;DHT22;2509;49.902;8.600;2022-07-23T08:32:51;25.50;99.90
4985;DHT22;2509;49.902;8.600;2022-07-23T08:35:53;25.90;99.90
4985;DHT22;2509;49.902;8.600;2022-07-23T08:38:56;25.80;99.90
4985;DHT22;2509;49.902;8.600;2022-07-23T08:41:58;25.80;99.90
4985;DHT22;2509;49.902;8.600;2022-07-23T08:45:02;26.00;99.70
4985;DHT22;2509;49.902;8.600;2022-07-23T08:48:06;26.10;99.70
4985;DHT22;2509;49.902;8.600;2022-07-23T08:51:08;26.20;98.30
4985;DHT22;2509;49.902;8.600;2022-07-23T08:54:11;26.20;98.10
4985;DHT22;2509;49.902;8.600;2022-07-23T08:57:13;26.40;98.60
4985;DHT22;2509;49.902;8.600;2022-07-23T09:00:18;26.50;97.70
4985;DHT22;2509;49.902;8.600;2022-07-23T09:03:21;26.70;96.60
4985;DHT22;2509;49.902;8.600;2022-07-23T09:06:23;26.80;96.40
4985;DHT22;2509;49.902;8.600;2022-07-23T09:09:25;26.90;95.50
4985;DHT22;2509;49.902;8.600;2022-07-23T09:12:30;27.00;96.20
4985;DHT22;2509;49.902;8.600;2022-07-23T09:15:37;27.10;95.70
4985;DHT22;2509;49.902;8.600;2022-07-23T09:18:51;27.10;95.60
4985;DHT22;2509;49.902;8.600;2022-07-23T09:21:53;27.10;96.90
4985;DHT22;2509;49.902;8.600;2022-07-23T09:25:11;27.30;94.10
4985;DHT22;2509;49.902;8.600;2022-07-23T09:28:14;27.30;93.60
4985;DHT22;2509;49.902;8.600;2022-07-23T09:31:17;27.20;93.40
4985;DHT22;2509;49.902;8.600;2022-07-23T09:34:21;27.20;92.90
4985;DHT22;2509;49.902;8.600;2022-07-23T09:37:23;27.30;93.10
4985;DHT22;2509;49.902;8.600;2022-07-23T09:40:25;27.40;93.50
4985;DHT22;2509;49.902;8.600;2022-07-23T09:43:27;27.70;92.10
4985;DHT22;2509;49.902;8.600;2022-07-23T09:46:30;27.70;91.80
4985;DHT22;2509;49.902;8.600;2022-07-23T09:49:32;27.80;91.10
4985;DHT22;2509;49.902;8.600;2022-07-23T09:52:35;27.90;92.00
4985;DHT22;2509;49.902;8.600;2022-07-23T09:55:37;28.20;91.40
4985;DHT22;2509;49.902;8.600;2022-07-23T09:58:40;28.30;91.10
4985;DHT22;2509;49.902;8.600;2022-07-23T10:01:52;28.50;91.70
4985;DHT22;2509;49.902;8.600;2022-07-23T10:04:54;28.70;90.70
4985;DHT22;2509;49.902;8.600;2022-07-23T10:07:58;28.60;90.40
4985;DHT22;2509;49.902;8.600;2022-07-23T10:11:01;28.60;90.80
4985;DHT22;2509;49.902;8.600;2022-07-23T10:14:03;28.60;90.10
4985;DHT22;2509;49.902;8.600;2022-07-23T10:17:08;28.60;90.10
4985;DHT22;2509;49.902;8.600;2022-07-23T10:20:10;28.70;93.20
4985;DHT22;2509;49.902;8.600;2022-07-23T10:23:18;28.80;90.30
4985;DHT22;2509;49.902;8.600;2022-07-23T10:26:27;28.80;89.90
4985;DHT22;2509;49.902;8.600;2022-07-23T10:29:42;29.00;88.70
4985;DHT22;2509;49.902;8.600;2022-07-23T10:32:56;29.30;88.40
4985;DHT22;2509;49.902;8.600;2022-07-23T10:36:09;29.60;88.30
4985;DHT22;2509;49.902;8.600;2022-07-23T10:39:19;29.80;86.50
4985;DHT22;2509;49.902;8.600;2022-07-23T10:42:33;29.70;87.70
4985;DHT22;2509;49.902;8.600;2022-07-23T10:45:36;29.50;87.50
4985;DHT22;2509;49.902;8.600;2022-07-23T10:48:39;29.50;87.20
4985;DHT22;2509;49.902;8.600;2022-07-23T10:52:18;29.80;87.00
4985;DHT22;2509;49.902;8.600;2022-07-23T10:55:41;30.40;86.40
4985;DHT22;2509;49.902;8.600;2022-07-23T10:58:47;30.90;85.50
4985;DHT22;2509;49.902;8.600;2022-07-23T11:01:50;30.90;84.70
4985;DHT22;2509;49.902;8.600;2022-07-23T11:04:53;30.80;85.00
4985;DHT22;2509;49.902;8.600;2022-07-23T11:08:17;30.80;84.50
4985;DHT22;2509;49.902;8.600;2022-07-23T11:11:20;31.00;85.10
4985;DHT22;2509;49.902;8.600;2022-07-23T11:18:00;30.90;85.80
4985;DHT22;2509;49.902;8.600;2022-07-23T11:24:50;31.30;85.20
4985;DHT22;2509;49.902;8.600;2022-07-23T11:27:52;30.90;84.50
4985;DHT22;2509;49.902;8.600;2022-07-23T11:30:54;31.00;85.20
4985;DHT22;2509;49.902;8.600;2022-07-23T11:37:35;31.90;83.40
4985;DHT22;2509;49.902;8.600;2022-07-23T11:40:39;32.60;80.90
4985;DHT22;2509;49.902;8.600;2022-07-23T11:43:41;33.30;80.20
4985;DHT22;2509;49.902;8.600;2022-07-23T11:46:54;34.00;77.80
4985;DHT22;2509;49.902;8.600;2022-07-23T11:49:58;34.20;76.10
4985;DHT22;2509;49.902;8.600;2022-07-23T11:53:01;34.10;76.00
4985;DHT22;2509;49.902;8.600;2022-07-23T11:56:06;34.10;76.30
4985;DHT22;2509;49.902;8.600;2022-07-23T11:59:08;33.90;76.60
4985;DHT22;2509;49.902;8.600;2022-07-23T12:02:11;33.30;78.10
4985;DHT22;2509;49.902;8.600;2022-07-23T12:05:14;32.70;78.50
4985;DHT22;2509;49.902;8.600;2022-07-23T12:08:16;32.20;78.50
4985;DHT22;2509;49.902;8.600;2022-07-23T12:11:19;32.00;78.70
4985;DHT22;2509;49.902;8.600;2022-07-23T12:14:21;31.60;78.20
4985;DHT22;2509;49.902;8.600;2022-07-23T12:17:28;31.30;79.50
4985;DHT22;2509;49.902;8.600;2022-07-23T12:20:32;31.30;80.20
4985;DHT22;2509;49.902;8.600;2022-07-23T12:23:34;32.20;79.80
4985;DHT22;2509;49.902;8.600;2022-07-23T12:26:39;33.20;76.30
4985;DHT22;2509;49.902;8.600;2022-07-23T12:29:41;34.30;75.60
4985;DHT22;2509;49.902;8.600;2022-07-23T12:32:44;35.30;71.80
4985;DHT22;2509;49.902;8.600;2022-07-23T12:35:46;35.90;70.60
4985;DHT22;2509;49.902;8.600;2022-07-23T12:38:48;36.50;69.90
4985;DHT22;2509;49.902;8.600;2022-07-23T12:41:53;36.30;69.80
4985;DHT22;2509;49.902;8.600;2022-07-23T12:45:07;35.00;71.20
4985;DHT22;2509;49.902;8.600;2022-07-23T12:48:16;34.20;72.50
4985;DHT22;2509;49.902;8.600;2022-07-23T12:51:19;33.90;73.30
4985;DHT22;2509;49.902;8.600;2022-07-23T12:54:27;33.70;72.90
4985;DHT22;2509;49.902;8.600;2022-07-23T12:57:48;33.50;73.70
4985;DHT22;2509;49.902;8.600;2022-07-23T13:00:59;33.20;74.30
4985;DHT22;2509;49.902;8.600;2022-07-23T13:04:04;32.90;74.00
4985;DHT22;2509;49.902;8.600;2022-07-23T13:07:06;33.20;73.40
4985;DHT22;2509;49.902;8.600;2022-07-23T13:10:08;33.70;73.20
4985;DHT22;2509;49.902;8.600;2022-07-23T13:13:14;33.80;74.70
4985;DHT22;2509;49.902;8.600;2022-07-23T13:16:17;34.10;72.50
4985;DHT22;2509;49.902;8.600;2022-07-23T13:19:19;34.50;72.50
4985;DHT22;2509;49.902;8.600;2022-07-23T13:22:22;35.90;72.10
4985;DHT22;2509;49.902;8.600;2022-07-23T13:25:24;37.10;68.10
4985;DHT22;2509;49.902;8.600;2022-07-23T13:28:27;37.20;66.50
4985;DHT22;2509;49.902;8.600;2022-07-23T13:31:29;37.10;66.70
4985;DHT22;2509;49.902;8.600;2022-07-23T13:34:31;36.40;67.20
4985;DHT22;2509;49.902;8.600;2022-07-23T13:37:33;36.80;67.10
4985;DHT22;2509;49.902;8.600;2022-07-23T13:40:36;36.90;67.50
4985;DHT22;2509;49.902;8.600;2022-07-23T13:43:40;36.60;68.20
4985;DHT22;2509;49.902;8.600;2022-07-23T13:46:42;37.40;66.40
4985;DHT22;2509;49.902;8.600;2022-07-23T13:49:44;37.80;67.30
4985;DHT22;2509;49.902;8.600;2022-07-23T13:52:46;38.30;65.00
4985;DHT22;2509;49.902;8.600;2022-07-23T13:55:49;38.80;65.10
4985;DHT22;2509;49.902;8.600;2022-07-23T13:58:53;38.40;63.90
4985;DHT22;2509;49.902;8.600;2022-07-23T14:01:55;37.60;64.50
4985;DHT22;2509;49.902;8.600;2022-07-23T14:04:57;36.90;65.60
4985;DHT22;2509;49.902;8.600;2022-07-23T14:07:59;37.20;65.70
4985;DHT22;2509;49.902;8.600;2022-07-23T14:11:01;37.40;66.10
4985;DHT22;2509;49.902;8.600;2022-07-23T14:14:04;38.40;64.10
4985;DHT22;2509;49.902;8.600;2022-07-23T14:17:06;38.80;64.20
4985;DHT22;2509;49.902;8.600;2022-07-23T14:20:08;38.80;64.10
4985;DHT22;2509;49.902;8.600;2022-07-23T14:23:10;38.80;64.50
4985;DHT22;2509;49.902;8.600;2022-07-23T14:26:12;39.50;63.50
4985;DHT22;2509;49.902;8.600;2022-07-23T14:29:16;39.50;63.10
4985;DHT22;2509;49.902;8.600;2022-07-23T14:32:18;39.70;62.40
4985;DHT22;2509;49.902;8.600;2022-07-23T14:35:19;39.70;61.70
4985;DHT22;2509;49.902;8.600;2022-07-23T14:38:21;39.90;62.00
4985;DHT22;2509;49.902;8.600;2022-07-23T14:41:23;39.60;62.90
4985;DHT22;2509;49.902;8.600;2022-07-23T14:44:26;39.20;62.40
4985;DHT22;2509;49.902;8.600;2022-07-23T14:47:28;38.10;63.90
4985;DHT22;2509;49.902;8.600;2022-07-23T14:50:30;37.90;64.20
4985;DHT22;2509;49.902;8.600;2022-07-23T14:53:31;38.60;64.60
4985;DHT22;2509;49.902;8.600;2022-07-23T14:56:33;39.40;62.40
4985;DHT22;2509;49.902;8.600;2022-07-23T14:59:38;39.70;61.90
4985;DHT22;2509;49.902;8.600;2022-07-23T15:02:42;38.10;64.30
4985;DHT22;2509;49.902;8.600;2022-07-23T15:05:44;37.20;65.80
4985;DHT22;2509;49.902;8.600;2022-07-23T15:08:46;37.00;65.80
4985;DHT22;2509;49.902;8.600;2022-07-23T15:11:48;36.10;67.00
4985;DHT22;2509;49.902;8.600;2022-07-23T15:14:51;35.60;67.90
4985;DHT22;2509;49.902;8.600;2022-07-23T15:17:52;35.40;68.30
4985;DHT22;2509;49.902;8.600;2022-07-23T15:20:54;36.10;68.60
4985;DHT22;2509;49.902;8.600;2022-07-23T15:23:56;36.50;67.80
4985;DHT22;2509;49.902;8.600;2022-07-23T15:26:59;36.60;67.20
4985;DHT22;2509;49.902;8.600;2022-07-23T15:30:03;36.70;66.50
4985;DHT22;2509;49.902;8.600;2022-07-23T15:33:05;36.80;66.80
4985;DHT22;2509;49.902;8.600;2022-07-23T15:36:07;36.90;66.20
4985;DHT22;2509;49.902;8.600;2022-07-23T15:39:10;36.70;66.80
4985;DHT22;2509;49.902;8.600;2022-07-23T15:42:11;37.30;65.50
4985;DHT22;2509;49.902;8.600;2022-07-23T15:45:15;37.30;64.90
4985;DHT22;2509;49.902;8.600;2022-07-23T15:48:18;37.30;65.60
4985;DHT22;2509;49.902;8.600;2022-07-23T15:51:20;37.50;64.40
4985;DHT22;2509;49.902;8.600;2022-07-23T15:54:22;37.20;64.80
4985;DHT22;2509;49.902;8.600;2022-07-23T15:57:24;36.90;65.40
4985;DHT22;2509;49.902;8.600;2022-07-23T16:00:27;36.80;65.60
4985;DHT22;2509;49.902;8.600;2022-07-23T16:03:29;36.60;66.30
4985;DHT22;2509;49.902;8.600;2022-07-23T16:06:32;36.40;65.80
4985;DHT22;2509;49.902;8.600;2022-07-23T16:09:34;36.00;65.70
4985;DHT22;2509;49.902;8.600;2022-07-23T16:12:36;35.00;69.10
4985;DHT22;2509;49.902;8.600;2022-07-23T16:15:40;34.50;70.80
4985;DHT22;2509;49.902;8.600;2022-07-23T16:18:42;34.10;75.90
4985;DHT22;2509;49.902;8.600;2022-07-23T16:21:44;32.90;73.50
4985;DHT22;2509;49.902;8.600;2022-07-23T16:24:46;31.90;74.50
4985;DHT22;2509;49.902;8.600;2022-07-23T16:27:48;31.10;91.10
4985;DHT22;2509;49.902;8.600;2022-07-23T16:30:51;30.90;88.70
4985;DHT22;2509;49.902;8.600;2022-07-23T16:33:52;30.70;82.50
4985;DHT22;2509;49.902;8.600;2022-07-23T16:36:55;30.70;84.60
4985;DHT22;2509;49.902;8.600;2022-07-23T16:39:58;30.50;79.30
4985;DHT22;2509;49.902;8.600;2022-07-23T16:43:00;30.50;81.50
4985;DHT22;2509;49.902;8.600;2022-07-23T16:46:04;30.40;83.40
4985;DHT22;2509;49.902;8.600;2022-07-23T16:49:07;30.10;80.70
4985;DHT22;2509;49.902;8.600;2022-07-23T16:52:09;30.10;83.00
4985;DHT22;2509;49.902;8.600;2022-07-23T16:55:11;30.10;82.30
4985;DHT22;2509;49.902;8.600;2022-07-23T16:58:12;30.10;87.00
4985;DHT22;2509;49.902;8.600;2022-07-23T17:01:17;30.00;90.30
4985;DHT22;2509;49.902;8.600;2022-07-23T17:04:18;30.00;84.90
4985;DHT22;2509;49.902;8.600;2022-07-23T17:07:20;30.00;81.70
4985;DHT22;2509;49.902;8.600;2022-07-23T17:10:22;29.90;79.70
4985;DHT22;2509;49.902;8.600;2022-07-23T17:13:25;29.90;82.90
4985;DHT22;2509;49.902;8.600;2022-07-23T17:16:28;29.70;80.30
4985;DHT22;2509;49.902;8.600;2022-07-23T17:19:30;29.60;86.40
4985;DHT22;2509;49.902;8.600;2022-07-23T17:22:32;29.50;80.70
4985;DHT22;2509;49.902;8.600;2022-07-23T17:25:34;29.40;81.80
4985;DHT22;2509;49.902;8.600;2022-07-23T17:28:35;29.40;82.10
4985;DHT22;2509;49.902;8.600;2022-07-23T17:31:39;29.30;84.10
4985;DHT22;2509;49.902;8.600;2022-07-23T17:34:40;29.20;83.30
4985;DHT22;2509;49.902;8.600;2022-07-23T17:37:42;29.20;86.30
4985;DHT22;2509;49.902;8.600;2022-07-23T17:40:44;29.00;84.90
4985;DHT22;2509;49.902;8.600;2022-07-23T17:43:46;28.90;85.50
4985;DHT22;2509;49.902;8.600;2022-07-23T17:46:49;28.80;84.30
4985;DHT22;2509;49.902;8.600;2022-07-23T17:49:51;28.70;85.00
4985;DHT22;2509;49.902;8.600;2022-07-23T17:52:53;28.60;85.10
4985;DHT22;2509;49.902;8.600;2022-07-23T17:55:55;28.60;85.00
4985;DHT22;2509;49.902;8.600;2022-07-23T17:58:59;28.50;85.80
4985;DHT22;2509;49.902;8.600;2022-07-23T18:02:02;28.40;85.60
4985;DHT22;2509;49.902;8.600;2022-07-23T18:05:05;28.40;84.80
4985;DHT22;2509;49.902;8.600;2022-07-23T18:08:07;28.30;85.70
4985;DHT22;2509;49.902;8.600;2022-07-23T18:11:09;28.30;85.30
4985;DHT22;2509;49.902;8.600;2022-07-23T18:14:11;28.30;85.30
4985;DHT22;2509;49.902;8.600;2022-07-23T18:17:14;28.30;85.30
4985;DHT22;2509;49.902;8.600;2022-07-23T18:20:16;28.20;85.30
4985;DHT22;2509;49.902;8.600;2022-07-23T18:23:18;28.20;83.20
4985;DHT22;2509;49.902;8.600;2022-07-23T18:26:20;28.10;86.00
4985;DHT22;2509;49.902;8.600;2022-07-23T18:29:21;28.10;85.40
4985;DHT22;2509;49.902;8.600;2022-07-23T18:32:25;28.00;85.00
4985;DHT22;2509;49.902;8.600;2022-07-23T18:35:27;27.90;84.60
4985;DHT22;2509;49.902;8.600;2022-07-23T18:38:29;27.80;85.30
4985;DHT22;2509;49.902;8.600;2022-07-23T18:41:32;27.80;85.70
4985;DHT22;2509;49.902;8.600;2022-07-23T18:44:34;27.70;87.00
4985;DHT22;2509;49.902;8.600;2022-07-23T18:47:38;27.60;86.90
4985;DHT22;2509;49.902;8.600;2022-07-23T18:50:40;27.50;86.70
4985;DHT22;2509;49.902;8.600;2022-07-23T18:53:42;27.40;88.30
4985;DHT22;2509;49.902;8.600;2022-07-23T18:56:43;27.40;88.70
4985;DHT22;2509;49.902;8.600;2022-07-23T18:59:45;27.30;90.60
4985;DHT22;2509;49.902;8.600;2022-07-23T19:02:48;27.20;90.10
4985;DHT22;2509;49.902;8.600;2022-07-23T19:05:50;27.00;90.50
4985;DHT22;2509;49.902;8.600;2022-07-23T19:08:52;26.90;91.60
4985;DHT22;2509;49.902;8.600;2022-07-23T19:11:54;26.80;90.50
4985;DHT22;2509;49.902;8.600;2022-07-23T19:14:56;26.80;90.40
4985;DHT22;2509;49.902;8.600;2022-07-23T19:17:59;26.70;91.00
4985;DHT22;2509;49.902;8.600;2022-07-23T19:21:01;26.60;93.80
4985;DHT22;2509;49.902;8.600;2022-07-23T19:24:06;26.50;94.70
4985;DHT22;2509;49.902;8.600;2022-07-23T19:27:08;26.40;95.70
4985;DHT22;2509;49.902;8.600;2022-07-23T19:30:10;26.30;95.20
4985;DHT22;2509;49.902;8.600;2022-07-23T19:33:14;26.30;94.70
4985;DHT22;2509;49.902;8.600;2022-07-23T19:36:16;26.20;95.60
4985;DHT22;2509;49.902;8.600;2022-07-23T19:39:18;26.10;94.80
4985;DHT22;2509;49.902;8.600;2022-07-23T19:42:19;26.00;94.60
4985;DHT22;2509;49.902;8.600;2022-07-23T19:45:21;26.00;96.00
4985;DHT22;2509;49.902;8.600;2022-07-23T19:48:24;25.90;96.00
4985;DHT22;2509;49.902;8.600;2022-07-23T19:51:26;25.80;95.80
4985;DHT22;2509;49.902;8.600;2022-07-23T19:54:28;25.70;94.90
4985;DHT22;2509;49.902;8.600;2022-07-23T19:57:30;25.60;94.70
4985;DHT22;2509;49.902;8.600;2022-07-23T20:00:32;25.50;93.40
4985;DHT22;2509;49.902;8.600;2022-07-23T20:03:35;25.50;92.90
4985;DHT22;2509;49.902;8.600;2022-07-23T20:06:37;25.40;92.60